sensor_id;sensor_type;location;lat;lon;timestamp;P1;durP1;ratioP1;P2;durP2;ratioP2
30173;SDS011;16985;50.814;8.530;2022-10-18T00:02:12;9.98;;;4.60;;
30173;SDS011;16985;50.814;8.530;2022-10-18T00:04:38;8.15;;;5.00;;
30173;SDS011;16985;50.814;8.530;2022-10-18T00:07:04;10.10;;;5.05;;
30173;SDS011;16985;50.814;8.530;2022-10-18T00:09:30;10.50;;;4.85;;
30173;SDS011;16985;50.814;8.530;2022-10-18T00:11:56;12.73;;;5.57;;
30173;SDS011;16985;50.814;8.530;2022-10-18T00:14:22;11.18;;;4.63;;
30173;SDS011;16985;50.814;8.530;2022-10-18T00:16:48;7.95;;;4.72;;
30173;SDS011;16985;50.814;8.530;2022-10-18T00:19:13;10.25;;;4.95;;
30173;SDS011;16985;50.814;8.530;2022-10-18T00:21:39;13.25;;;5.22;;
30173;SDS011;16985;50.814;8.530;2022-10-18T00:24:05;14.63;;;5.45;;
30173;SDS011;16985;50.814;8.530;2022-10-18T00:26:31;12.50;;;5.00;;
30173;SDS011;16985;50.814;8.530;2022-10-18T00:29:03;8.63;;;4.38;;
30173;SDS011;16985;50.814;8.530;2022-10-18T00:31:31;14.13;;;4.50;;
30173;SDS011;16985;50.814;8.530;2022-10-18T00:34:04;6.05;;;4.13;;
30173;SDS011;16985;50.814;8.530;2022-10-18T00:36:34;14.38;;;5.32;;
30173;SDS011;16985;50.814;8.530;2022-10-18T00:39:00;14.07;;;5.80;;
30173;SDS011;16985;50.814;8.530;2022-10-18T00:41:29;11.02;;;5.45;;
30173;SDS011;16985;50.814;8.530;2022-10-18T00:46:52;9.23;;;4.50;;
30173;SDS011;16985;50.814;8.530;2022-10-18T00:49:35;6.97;;;4.05;;
30173;SDS011;16985;50.814;8.530;2022-10-18T00:52:07;11.93;;;4.68;;
30173;SDS011;16985;50.814;8.530;2022-10-18T00:54:43;7.75;;;4.30;;
30173;SDS011;16985;50.814;8.530;2022-10-18T00:57:11;12.02;;;4.70;;
30173;SDS011;16985;50.814;8.530;2022-10-18T00:59:37;8.50;;;5.03;;
30173;SDS011;16985;50.814;8.530;2022-10-18T01:02:05;8.75;;;4.35;;
30173;SDS011;16985;50.814;8.530;2022-10-18T01:04:31;9.55;;;4.85;;
30173;SDS011;16985;50.814;8.530;2022-10-18T01:21:42;14.82;;;4.55;;
30173;SDS011;16985;50.814;8.530;2022-10-18T01:32:51;6.43;;;4.00;;
30173;SDS011;16985;50.814;8.530;2022-10-18T01:35:26;13.77;;;4.70;;
30173;SDS011;16985;50.814;8.530;2022-10-18T01:37:59;9.35;;;5.03;;
30173;SDS011;16985;50.814;8.530;2022-10-18T01:40:29;7.18;;;4.75;;
30173;SDS011;16985;50.814;8.530;2022-10-18T01:42:56;11.75;;;5.32;;
30173;SDS011;16985;50.814;8.530;2022-10-18T01:45:22;9.02;;;4.47;;
30173;SDS011;16985;50.814;8.530;2022-10-18T01:47:50;5.95;;;4.32;;
30173;SDS011;16985;50.814;8.530;2022-10-18T01:50:28;9.73;;;4.82;;
30173;SDS011;16985;50.814;8.530;2022-10-18T01:52:56;9.43;;;4.82;;
30173;SDS011;16985;50.814;8.530;2022-10-18T01:55:24;8.45;;;4.72;;
30173;SDS011;16985;50.814;8.530;2022-10-18T01:58:28;5.57;;;4.55;;
30173;SDS011;16985;50.814;8.530;2022-10-18T02:01:09;9.63;;;5.55;;
30173;SDS011;16985;50.814;8.530;2022-10-18T02:03:45;7.32;;;4.70;;
30173;SDS011;16985;50.814;8.530;2022-10-18T02:06:21;6.97;;;4.25;;
30173;SDS011;16985;50.814;8.530;2022-10-18T02:11:32;11.40;;;4.97;;
30173;SDS011;16985;50.814;8.530;2022-10-18T02:14:05;10.38;;;5.03;;
30173;SDS011;16985;50.814;8.530;2022-10-18T02:16:43;9.23;;;4.50;;
30173;SDS011;16985;50.814;8.530;2022-10-18T02:19:24;7.57;;;5.07;;
30173;SDS011;16985;50.814;8.530;2022-10-18T02:22:04;11.55;;;5.55;;
30173;SDS011;16985;50.814;8.530;2022-10-18T02:24:34;11.32;;;5.03;;
30173;SDS011;16985;50.814;8.530;2022-10-18T02:27:03;11.95;;;5.40;;
30173;SDS011;16985;50.814;8.530;2022-10-18T02:29:30;13.45;;;6.32;;
30173;SDS011;16985;50.814;8.530;2022-10-18T02:32:08;9.13;;;6.13;;
30173;SDS011;16985;50.814;8.530;2022-10-18T02:34:58;12.95;;;5.80;;
30173;SDS011;16985;50.814;8.530;2022-10-18T02:37:49;17.42;;;7.75;;
30173;SDS011;16985;50.814;8.530;2022-10-18T02:42:44;9.18;;;5.78;;
30173;SDS011;16985;50.814;8.530;2022-10-18T02:45:14;12.10;;;6.30;;
30173;SDS011;16985;50.814;8.530;2022-10-18T02:47:41;9.43;;;5.97;;
30173;SDS011;16985;50.814;8.530;2022-10-18T02:50:07;10.77;;;6.05;;
30173;SDS011;16985;50.814;8.530;2022-10-18T02:52:33;10.63;;;6.50;;
30173;SDS011;16985;50.814;8.530;2022-10-18T02:54:59;11.68;;;6.32;;
30173;SDS011;16985;50.814;8.530;2022-10-18T02:57:25;11.60;;;7.25;;
30173;SDS011;16985;50.814;8.530;2022-10-18T02:59:51;10.00;;;6.70;;
30173;SDS011;16985;50.814;8.530;2022-10-18T03:02:17;8.30;;;5.65;;
30173;SDS011;16985;50.814;8.530;2022-10-18T03:04:43;10.88;;;6.25;;
30173;SDS011;16985;50.814;8.530;2022-10-18T03:07:09;10.77;;;5.78;;
30173;SDS011;16985;50.814;8.530;2022-10-18T03:09:34;11.85;;;6.47;;
30173;SDS011;16985;50.814;8.530;2022-10-18T03:12:00;10.35;;;7.03;;
30173;SDS011;16985;50.814;8.530;2022-10-18T03:14:26;9.00;;;6.82;;
30173;SDS011;16985;50.814;8.530;2022-10-18T03:16:52;10.95;;;6.50;;
30173;SDS011;16985;50.814;8.530;2022-10-18T03:19:17;12.00;;;6.47;;
30173;SDS011;16985;50.814;8.530;2022-10-18T03:21:43;9.60;;;6.47;;
30173;SDS011;16985;50.814;8.530;2022-10-18T03:24:09;11.90;;;7.28;;
30173;SDS011;16985;50.814;8.530;2022-10-18T03:26:35;11.88;;;6.72;;
30173;SDS011;16985;50.814;8.530;2022-10-18T03:29:00;12.52;;;6.80;;
30173;SDS011;16985;50.814;8.530;2022-10-18T03:31:26;11.55;;;6.25;;
30173;SDS011;16985;50.814;8.530;2022-10-18T03:33:52;15.27;;;7.55;;
30173;SDS011;16985;50.814;8.530;2022-10-18T03:36:18;15.25;;;7.97;;
30173;SDS011;16985;50.814;8.530;2022-10-18T03:38:44;13.02;;;8.65;;
30173;SDS011;16985;50.814;8.530;2022-10-18T03:41:09;15.40;;;8.07;;
30173;SDS011;16985;50.814;8.530;2022-10-18T03:43:35;15.75;;;8.60;;
30173;SDS011;16985;50.814;8.530;2022-10-18T03:46:01;17.65;;;8.65;;
30173;SDS011;16985;50.814;8.530;2022-10-18T03:48:27;13.35;;;7.85;;
30173;SDS011;16985;50.814;8.530;2022-10-18T03:50:53;12.02;;;8.27;;
30173;SDS011;16985;50.814;8.530;2022-10-18T03:53:19;14.98;;;8.30;;
30173;SDS011;16985;50.814;8.530;2022-10-18T03:55:49;15.40;;;7.68;;
30173;SDS011;16985;50.814;8.530;2022-10-18T03:58:19;11.23;;;8.32;;
30173;SDS011;16985;50.814;8.530;2022-10-18T04:00:47;12.27;;;7.70;;
30173;SDS011;16985;50.814;8.530;2022-10-18T04:03:15;12.38;;;7.90;;
30173;SDS011;16985;50.814;8.530;2022-10-18T04:05:41;13.85;;;7.28;;
30173;SDS011;16985;50.814;8.530;2022-10-18T04:08:07;13.45;;;7.38;;
30173;SDS011;16985;50.814;8.530;2022-10-18T04:10:32;10.70;;;7.10;;
30173;SDS011;16985;50.814;8.530;2022-10-18T04:12:58;13.88;;;7.13;;
30173;SDS011;16985;50.814;8.530;2022-10-18T04:15:24;13.63;;;7.22;;
30173;SDS011;16985;50.814;8.530;2022-10-18T04:17:50;12.55;;;6.78;;
30173;SDS011;16985;50.814;8.530;2022-10-18T04:20:16;10.07;;;5.78;;
30173;SDS011;16985;50.814;8.530;2022-10-18T04:22:42;11.55;;;7.32;;
30173;SDS011;16985;50.814;8.530;2022-10-18T04:25:07;11.18;;;6.95;;
30173;SDS011;16985;50.814;8.530;2022-10-18T04:27:33;14.25;;;6.18;;
30173;SDS011;16985;50.814;8.530;2022-10-18T04:30:00;8.73;;;6.18;;
30173;SDS011;16985;50.814;8.530;2022-10-18T04:32:25;12.90;;;6.20;;
30173;SDS011;16985;50.814;8.530;2022-10-18T04:34:53;9.02;;;5.57;;
30173;SDS011;16985;50.814;8.530;2022-10-18T04:37:19;13.93;;;6.95;;
30173;SDS011;16985;50.814;8.530;2022-10-18T04:39:44;8.65;;;5.85;;
30173;SDS011;16985;50.814;8.530;2022-10-18T04:42:12;8.48;;;5.72;;
30173;SDS011;16985;50.814;8.530;2022-10-18T04:44:39;11.50;;;6.85;;
30173;SDS011;16985;50.814;8.530;2022-10-18T04:47:05;9.32;;;5.47;;
30173;SDS011;16985;50.814;8.530;2022-10-18T04:49:30;7.80;;;5.40;;
30173;SDS011;16985;50.814;8.530;2022-10-18T04:51:56;9.15;;;5.30;;
30173;SDS011;16985;50.814;8.530;2022-10-18T04:54:22;9.32;;;5.85;;
30173;SDS011;16985;50.814;8.530;2022-10-18T04:56:48;9.13;;;5.95;;
30173;SDS011;16985;50.814;8.530;2022-10-18T04:59:14;8.32;;;5.38;;
30173;SDS011;16985;50.814;8.530;2022-10-18T05:01:39;6.63;;;5.13;;
30173;SDS011;16985;50.814;8.530;2022-10-18T05:04:05;7.60;;;5.22;;
30173;SDS011;16985;50.814;8.530;2022-10-18T05:06:31;8.82;;;5.53;;
30173;SDS011;16985;50.814;8.530;2022-10-18T05:08:57;10.40;;;5.35;;
30173;SDS011;16985;50.814;8.530;2022-10-18T05:11:22;10.63;;;5.50;;
30173;SDS011;16985;50.814;8.530;2022-10-18T05:13:48;6.30;;;4.57;;
30173;SDS011;16985;50.814;8.530;2022-10-18T05:16:14;7.07;;;4.43;;
30173;SDS011;16985;50.814;8.530;2022-10-18T05:18:40;5.18;;;4.03;;
30173;SDS011;16985;50.814;8.530;2022-10-18T05:21:07;6.22;;;4.32;;
30173;SDS011;16985;50.814;8.530;2022-10-18T05:23:33;6.50;;;4.07;;
30173;SDS011;16985;50.814;8.530;2022-10-18T05:26:02;6.07;;;4.13;;
30173;SDS011;16985;50.814;8.530;2022-10-18T05:28:30;5.10;;;3.97;;
30173;SDS011;16985;50.814;8.530;2022-10-18T05:31:00;5.90;;;3.90;;
30173;SDS011;16985;50.814;8.530;2022-10-18T05:33:30;6.15;;;3.60;;
30173;SDS011;16985;50.814;8.530;2022-10-18T05:35:56;4.70;;;3.50;;
30173;SDS011;16985;50.814;8.530;2022-10-18T05:38:22;4.25;;;3.78;;
30173;SDS011;16985;50.814;8.530;2022-10-18T05:40:48;4.65;;;3.75;;
30173;SDS011;16985;50.814;8.530;2022-10-18T05:43:14;5.68;;;3.22;;
30173;SDS011;16985;50.814;8.530;2022-10-18T05:45:48;4.00;;;3.60;;
30173;SDS011;16985;50.814;8.530;2022-10-18T05:48:15;4.45;;;2.97;;
30173;SDS011;16985;50.814;8.530;2022-10-18T05:50:41;4.82;;;2.90;;
30173;SDS011;16985;50.814;8.530;2022-10-18T05:53:08;4.35;;;3.10;;
30173;SDS011;16985;50.814;8.530;2022-10-18T05:55:34;11.48;;;3.55;;
30173;SDS011;16985;50.814;8.530;2022-10-18T05:58:00;4.25;;;3.60;;
30173;SDS011;16985;50.814;8.530;2022-10-18T06:00:26;6.22;;;4.15;;
30173;SDS011;16985;50.814;8.530;2022-10-18T06:02:53;7.07;;;4.05;;
30173;SDS011;16985;50.814;8.530;2022-10-18T06:05:19;4.78;;;3.40;;
30173;SDS011;16985;50.814;8.530;2022-10-18T06:07:44;3.72;;;3.38;;
30173;SDS011;16985;50.814;8.530;2022-10-18T06:10:10;5.63;;;3.50;;
30173;SDS011;16985;50.814;8.530;2022-10-18T06:12:36;6.15;;;3.53;;
30173;SDS011;16985;50.814;8.530;2022-10-18T06:15:02;4.28;;;2.88;;
30173;SDS011;16985;50.814;8.530;2022-10-18T06:17:29;3.75;;;3.38;;
30173;SDS011;16985;50.814;8.530;2022-10-18T06:19:54;3.75;;;2.53;;
30173;SDS011;16985;50.814;8.530;2022-10-18T06:22:20;3.55;;;3.05;;
30173;SDS011;16985;50.814;8.530;2022-10-18T06:24:46;3.35;;;2.33;;
30173;SDS011;16985;50.814;8.530;2022-10-18T06:27:12;4.05;;;2.20;;
30173;SDS011;16985;50.814;8.530;2022-10-18T06:29:38;2.80;;;1.83;;
30173;SDS011;16985;50.814;8.530;2022-10-18T06:32:05;1.85;;;1.73;;
30173;SDS011;16985;50.814;8.530;2022-10-18T06:34:32;3.17;;;1.63;;
30173;SDS011;16985;50.814;8.530;2022-10-18T06:36:58;3.60;;;1.70;;
30173;SDS011;16985;50.814;8.530;2022-10-18T06:39:24;2.53;;;1.50;;
30173;SDS011;16985;50.814;8.530;2022-10-18T06:41:50;1.55;;;1.33;;
30173;SDS011;16985;50.814;8.530;2022-10-18T06:44:18;2.50;;;1.40;;
30173;SDS011;16985;50.814;8.530;2022-10-18T06:46:45;3.55;;;1.23;;
30173;SDS011;16985;50.814;8.530;2022-10-18T06:49:12;1.13;;;1.02;;
30173;SDS011;16985;50.814;8.530;2022-10-18T06:51:39;2.40;;;1.35;;
30173;SDS011;16985;50.814;8.530;2022-10-18T06:54:06;1.80;;;1.17;;
30173;SDS011;16985;50.814;8.530;2022-10-18T06:56:32;1.67;;;1.30;;
30173;SDS011;16985;50.814;8.530;2022-10-18T06:58:58;1.80;;;1.10;;
30173;SDS011;16985;50.814;8.530;2022-10-18T07:01:24;1.83;;;1.40;;
30173;SDS011;16985;50.814;8.530;2022-10-18T07:03:52;1.75;;;1.20;;
30173;SDS011;16985;50.814;8.530;2022-10-18T07:06:20;2.47;;;1.40;;
30173;SDS011;16985;50.814;8.530;2022-10-18T07:08:48;1.40;;;1.30;;
30173;SDS011;16985;50.814;8.530;2022-10-18T07:11:20;2.83;;;1.50;;
30173;SDS011;16985;50.814;8.530;2022-10-18T07:13:49;2.38;;;1.30;;
30173;SDS011;16985;50.814;8.530;2022-10-18T07:16:17;2.10;;;1.13;;
30173;SDS011;16985;50.814;8.530;2022-10-18T07:18:44;2.23;;;1.20;;
30173;SDS011;16985;50.814;8.530;2022-10-18T07:21:16;1.70;;;1.10;;
30173;SDS011;16985;50.814;8.530;2022-10-18T07:23:45;1.77;;;1.40;;
30173;SDS011;16985;50.814;8.530;2022-10-18T07:28:48;5.70;;;1.60;;
30173;SDS011;16985;50.814;8.530;2022-10-18T07:31:35;3.08;;;1.67;;
30173;SDS011;16985;50.814;8.530;2022-10-18T07:34:06;3.72;;;1.70;;
30173;SDS011;16985;50.814;8.530;2022-10-18T07:36:34;3.55;;;1.83;;
30173;SDS011;16985;50.814;8.530;2022-10-18T07:39:00;4.07;;;1.88;;
30173;SDS011;16985;50.814;8.530;2022-10-18T07:41:26;2.95;;;2.30;;
30173;SDS011;16985;50.814;8.530;2022-10-18T07:43:52;3.55;;;2.30;;
30173;SDS011;16985;50.814;8.530;2022-10-18T07:46:19;4.60;;;2.80;;
30173;SDS011;16985;50.814;8.530;2022-10-18T07:48:46;3.47;;;3.00;;
30173;SDS011;16985;50.814;8.530;2022-10-18T07:51:12;7.25;;;4.28;;
30173;SDS011;16985;50.814;8.530;2022-10-18T07:53:38;5.15;;;3.92;;
30173;SDS011;16985;50.814;8.530;2022-10-18T07:56:06;6.32;;;4.63;;
30173;SDS011;16985;50.814;8.530;2022-10-18T07:58:39;6.32;;;4.10;;
30173;SDS011;16985;50.814;8.530;2022-10-18T08:01:07;4.78;;;3.75;;
30173;SDS011;16985;50.814;8.530;2022-10-18T08:03:34;4.07;;;3.17;;
30173;SDS011;16985;50.814;8.530;2022-10-18T08:06:00;4.82;;;3.58;;
30173;SDS011;16985;50.814;8.530;2022-10-18T08:08:27;5.80;;;4.40;;
30173;SDS011;16985;50.814;8.530;2022-10-18T08:10:54;6.03;;;4.43;;
30173;SDS011;16985;50.814;8.530;2022-10-18T08:13:20;5.60;;;4.40;;
30173;SDS011;16985;50.814;8.530;2022-10-18T08:15:46;4.95;;;4.28;;
30173;SDS011;16985;50.814;8.530;2022-10-18T08:18:12;5.07;;;4.18;;
30173;SDS011;16985;50.814;8.530;2022-10-18T08:20:41;6.43;;;4.28;;
30173;SDS011;16985;50.814;8.530;2022-10-18T08:23:08;4.63;;;4.20;;
30173;SDS011;16985;50.814;8.530;2022-10-18T08:25:34;5.60;;;4.68;;
30173;SDS011;16985;50.814;8.530;2022-10-18T08:28:00;7.75;;;4.80;;
30173;SDS011;16985;50.814;8.530;2022-10-18T08:30:26;6.88;;;5.35;;
30173;SDS011;16985;50.814;8.530;2022-10-18T08:32:52;7.43;;;5.43;;
30173;SDS011;16985;50.814;8.530;2022-10-18T08:35:18;7.53;;;5.63;;
30173;SDS011;16985;50.814;8.530;2022-10-18T08:37:44;7.47;;;5.93;;
30173;SDS011;16985;50.814;8.530;2022-10-18T08:40:12;9.18;;;5.95;;
30173;SDS011;16985;50.814;8.530;2022-10-18T08:45:14;10.02;;;6.53;;
30173;SDS011;16985;50.814;8.530;2022-10-18T08:47:44;12.73;;;6.60;;
30173;SDS011;16985;50.814;8.530;2022-10-18T08:50:21;9.43;;;7.10;;
30173;SDS011;16985;50.814;8.530;2022-10-18T08:53:13;9.90;;;7.03;;
30173;SDS011;16985;50.814;8.530;2022-10-18T08:56:10;9.27;;;6.70;;
30173;SDS011;16985;50.814;8.530;2022-10-18T09:10:23;7.32;;;6.45;;
30173;SDS011;16985;50.814;8.530;2022-10-18T09:16:07;7.93;;;5.85;;
30173;SDS011;16985;50.814;8.530;2022-10-18T09:24:14;8.05;;;6.10;;
30173;SDS011;16985;50.814;8.530;2022-10-18T09:27:18;6.13;;;5.30;;
30173;SDS011;16985;50.814;8.530;2022-10-18T09:35:33;7.95;;;4.72;;
30173;SDS011;16985;50.814;8.530;2022-10-18T09:38:18;5.38;;;4.22;;
30173;SDS011;16985;50.814;8.530;2022-10-18T09:40:56;5.32;;;4.55;;
30173;SDS011;16985;50.814;8.530;2022-10-18T09:43:41;4.78;;;4.13;;
30173;SDS011;16985;50.814;8.530;2022-10-18T09:46:24;4.75;;;3.97;;
30173;SDS011;16985;50.814;8.530;2022-10-18T09:48:59;5.78;;;4.28;;
30173;SDS011;16985;50.814;8.530;2022-10-18T09:51:34;5.50;;;4.50;;
30173;SDS011;16985;50.814;8.530;2022-10-18T09:54:09;4.85;;;4.10;;
30173;SDS011;16985;50.814;8.530;2022-10-18T09:56:45;3.60;;;3.30;;
30173;SDS011;16985;50.814;8.530;2022-10-18T09:59:34;4.22;;;3.45;;
30173;SDS011;16985;50.814;8.530;2022-10-18T10:02:01;3.83;;;3.40;;
30173;SDS011;16985;50.814;8.530;2022-10-18T10:04:27;4.75;;;3.72;;
30173;SDS011;16985;50.814;8.530;2022-10-18T10:06:54;4.68;;;3.33;;
30173;SDS011;16985;50.814;8.530;2022-10-18T10:09:27;3.83;;;3.33;;
30173;SDS011;16985;50.814;8.530;2022-10-18T10:12:04;6.10;;;3.10;;
30173;SDS011;16985;50.814;8.530;2022-10-18T10:14:49;5.25;;;2.95;;
30173;SDS011;16985;50.814;8.530;2022-10-18T10:17:20;5.35;;;2.80;;
30173;SDS011;16985;50.814;8.530;2022-10-18T10:20:01;5.97;;;3.28;;
30173;SDS011;16985;50.814;8.530;2022-10-18T10:22:39;4.20;;;2.95;;
30173;SDS011;16985;50.814;8.530;2022-10-18T10:25:16;3.33;;;3.00;;
30173;SDS011;16985;50.814;8.530;2022-10-18T10:30:45;4.80;;;3.08;;
30173;SDS011;16985;50.814;8.530;2022-10-18T10:33:31;2.70;;;2.35;;
30173;SDS011;16985;50.814;8.530;2022-10-18T10:36:02;2.92;;;2.22;;
30173;SDS011;16985;50.814;8.530;2022-10-18T10:38:31;2.22;;;2.03;;
30173;SDS011;16985;50.814;8.530;2022-10-18T10:40:57;2.25;;;1.80;;
30173;SDS011;16985;50.814;8.530;2022-10-18T10:48:51;2.65;;;1.60;;
30173;SDS011;16985;50.814;8.530;2022-10-18T10:51:34;1.70;;;1.60;;
30173;SDS011;16985;50.814;8.530;2022-10-18T10:54:12;2.45;;;2.20;;
30173;SDS011;16985;50.814;8.530;2022-10-18T10:59:29;1.88;;;1.40;;
30173;SDS011;16985;50.814;8.530;2022-10-18T11:02:17;2.42;;;1.60;;
30173;SDS011;16985;50.814;8.530;2022-10-18T11:04:53;1.73;;;1.60;;
30173;SDS011;16985;50.814;8.530;2022-10-18T11:07:22;4.07;;;1.45;;
30173;SDS011;16985;50.814;8.530;2022-10-18T11:10:21;1.48;;;1.38;;
30173;SDS011;16985;50.814;8.530;2022-10-18T11:13:11;2.25;;;1.33;;
30173;SDS011;16985;50.814;8.530;2022-10-18T11:15:54;5.35;;;1.77;;
30173;SDS011;16985;50.814;8.530;2022-10-18T11:18:34;5.07;;;1.55;;
30173;SDS011;16985;50.814;8.530;2022-10-18T11:21:06;4.40;;;2.05;;
30173;SDS011;16985;50.814;8.530;2022-10-18T11:23:41;1.50;;;1.40;;
30173;SDS011;16985;50.814;8.530;2022-10-18T11:32:12;1.73;;;1.30;;
30173;SDS011;16985;50.814;8.530;2022-10-18T11:38:04;4.03;;;1.50;;
30173;SDS011;16985;50.814;8.530;2022-10-18T11:44:01;1.80;;;1.63;;
30173;SDS011;16985;50.814;8.530;2022-10-18T11:49:48;1.70;;;1.60;;
30173;SDS011;16985;50.814;8.530;2022-10-18T11:55:26;6.75;;;2.50;;
30173;SDS011;16985;50.814;8.530;2022-10-18T12:03:33;3.55;;;2.10;;
30173;SDS011;16985;50.814;8.530;2022-10-18T12:06:21;3.10;;;1.95;;
30173;SDS011;16985;50.814;8.530;2022-10-18T12:08:59;2.25;;;1.55;;
30173;SDS011;16985;50.814;8.530;2022-10-18T12:11:42;2.22;;;1.98;;
30173;SDS011;16985;50.814;8.530;2022-10-18T12:14:28;5.65;;;1.90;;
30173;SDS011;16985;50.814;8.530;2022-10-18T12:17:02;3.13;;;2.17;;
30173;SDS011;16985;50.814;8.530;2022-10-18T12:19:37;4.22;;;1.90;;
30173;SDS011;16985;50.814;8.530;2022-10-18T12:22:13;3.90;;;2.15;;
30173;SDS011;16985;50.814;8.530;2022-10-18T12:24:47;2.70;;;1.90;;
30173;SDS011;16985;50.814;8.530;2022-10-18T12:27:13;4.57;;;2.33;;
30173;SDS011;16985;50.814;8.530;2022-10-18T12:29:52;3.80;;;2.28;;
30173;SDS011;16985;50.814;8.530;2022-10-18T12:32:29;3.55;;;2.28;;
30173;SDS011;16985;50.814;8.530;2022-10-18T12:35:19;4.50;;;1.98;;
30173;SDS011;16985;50.814;8.530;2022-10-18T12:40:43;4.55;;;2.58;;
30173;SDS011;16985;50.814;8.530;2022-10-18T12:43:23;2.78;;;2.15;;
30173;SDS011;16985;50.814;8.530;2022-10-18T12:46:02;3.33;;;2.40;;
30173;SDS011;16985;50.814;8.530;2022-10-18T12:53:55;21.70;;;2.97;;
30173;SDS011;16985;50.814;8.530;2022-10-18T12:56:36;3.22;;;2.45;;
30173;SDS011;16985;50.814;8.530;2022-10-18T13:17:51;3.75;;;2.83;;
30173;SDS011;16985;50.814;8.530;2022-10-18T13:20:41;9.55;;;2.60;;
30173;SDS011;16985;50.814;8.530;2022-10-18T13:26:27;5.55;;;3.13;;
30173;SDS011;16985;50.814;8.530;2022-10-18T13:29:38;6.55;;;3.13;;
30173;SDS011;16985;50.814;8.530;2022-10-18T13:32:35;4.95;;;3.55;;
30173;SDS011;16985;50.814;8.530;2022-10-18T13:38:26;4.65;;;2.95;;
30173;SDS011;16985;50.814;8.530;2022-10-18T13:41:21;3.17;;;2.30;;
30173;SDS011;16985;50.814;8.530;2022-10-18T14:07:03;3.85;;;2.40;;
30173;SDS011;16985;50.814;8.530;2022-10-18T14:09:41;5.85;;;2.55;;
30173;SDS011;16985;50.814;8.530;2022-10-18T14:12:27;12.27;;;3.92;;
30173;SDS011;16985;50.814;8.530;2022-10-18T14:20:18;4.45;;;3.25;;
30173;SDS011;16985;50.814;8.530;2022-10-18T14:23:13;3.17;;;2.80;;
30173;SDS011;16985;50.814;8.530;2022-10-18T14:25:43;7.40;;;2.35;;
30173;SDS011;16985;50.814;8.530;2022-10-18T14:28:11;3.63;;;2.80;;
30173;SDS011;16985;50.814;8.530;2022-10-18T14:30:49;5.82;;;2.75;;
30173;SDS011;16985;50.814;8.530;2022-10-18T14:33:33;5.18;;;3.38;;
30173;SDS011;16985;50.814;8.530;2022-10-18T14:41:29;3.97;;;3.42;;
30173;SDS011;16985;50.814;8.530;2022-10-18T14:46:50;5.88;;;2.92;;
30173;SDS011;16985;50.814;8.530;2022-10-18T14:49:27;2.65;;;2.45;;
30173;SDS011;16985;50.814;8.530;2022-10-18T14:51:54;6.45;;;2.70;;
30173;SDS011;16985;50.814;8.530;2022-10-18T14:54:24;3.28;;;2.70;;
30173;SDS011;16985;50.814;8.530;2022-10-18T14:56:56;6.78;;;3.15;;
30173;SDS011;16985;50.814;8.530;2022-10-18T14:59:24;7.20;;;2.97;;
30173;SDS011;16985;50.814;8.530;2022-10-18T15:02:00;5.93;;;3.13;;
30173;SDS011;16985;50.814;8.530;2022-10-18T15:04:35;2.88;;;2.40;;
30173;SDS011;16985;50.814;8.530;2022-10-18T15:07:02;4.20;;;2.83;;
30173;SDS011;16985;50.814;8.530;2022-10-18T15:09:31;7.13;;;2.90;;
30173;SDS011;16985;50.814;8.530;2022-10-18T15:12:01;4.28;;;2.72;;
30173;SDS011;16985;50.814;8.530;2022-10-18T15:38:24;5.00;;;3.28;;
30173;SDS011;16985;50.814;8.530;2022-10-18T15:44:47;9.90;;;3.75;;
30173;SDS011;16985;50.814;8.530;2022-10-18T15:47:19;8.30;;;3.95;;
30173;SDS011;16985;50.814;8.530;2022-10-18T15:49:51;4.70;;;3.22;;
30173;SDS011;16985;50.814;8.530;2022-10-18T15:52:27;8.45;;;4.03;;
30173;SDS011;16985;50.814;8.530;2022-10-18T15:55:46;8.30;;;3.90;;
30173;SDS011;16985;50.814;8.530;2022-10-18T15:58:14;19.75;;;4.43;;
30173;SDS011;16985;50.814;8.530;2022-10-18T16:00:44;14.13;;;4.40;;
30173;SDS011;16985;50.814;8.530;2022-10-18T16:03:12;15.38;;;4.20;;
30173;SDS011;16985;50.814;8.530;2022-10-18T16:05:39;10.20;;;4.17;;
30173;SDS011;16985;50.814;8.530;2022-10-18T16:08:06;6.28;;;3.65;;
30173;SDS011;16985;50.814;8.530;2022-10-18T16:10:44;3.97;;;3.42;;
30173;SDS011;16985;50.814;8.530;2022-10-18T16:13:09;6.00;;;3.83;;
30173;SDS011;16985;50.814;8.530;2022-10-18T16:15:35;6.38;;;3.40;;
30173;SDS011;16985;50.814;8.530;2022-10-18T16:18:01;6.05;;;3.83;;
30173;SDS011;16985;50.814;8.530;2022-10-18T16:20:27;9.95;;;4.03;;
30173;SDS011;16985;50.814;8.530;2022-10-18T16:22:52;9.55;;;3.30;;
30173;SDS011;16985;50.814;8.530;2022-10-18T16:25:18;5.10;;;3.72;;
30173;SDS011;16985;50.814;8.530;2022-10-18T16:27:44;6.40;;;3.80;;
30173;SDS011;16985;50.814;8.530;2022-10-18T16:30:13;5.88;;;4.55;;
30173;SDS011;16985;50.814;8.530;2022-10-18T16:32:44;8.35;;;3.70;;
30173;SDS011;16985;50.814;8.530;2022-10-18T16:35:10;10.10;;;3.72;;
30173;SDS011;16985;50.814;8.530;2022-10-18T16:37:37;7.90;;;3.38;;
30173;SDS011;16985;50.814;8.530;2022-10-18T16:40:17;4.28;;;3.10;;
30173;SDS011;16985;50.814;8.530;2022-10-18T16:42:48;6.15;;;3.63;;
30173;SDS011;16985;50.814;8.530;2022-10-18T16:45:14;14.35;;;3.95;;
30173;SDS011;16985;50.814;8.530;2022-10-18T16:47:40;16.60;;;4.30;;
30173;SDS011;16985;50.814;8.530;2022-10-18T16:50:08;9.38;;;4.30;;
30173;SDS011;16985;50.814;8.530;2022-10-18T16:52:43;5.63;;;3.92;;
30173;SDS011;16985;50.814;8.530;2022-10-18T16:55:09;5.43;;;3.88;;
30173;SDS011;16985;50.814;8.530;2022-10-18T16:57:41;5.53;;;3.95;;
30173;SDS011;16985;50.814;8.530;2022-10-18T17:00:12;6.13;;;4.80;;
30173;SDS011;16985;50.814;8.530;2022-10-18T17:02:43;10.32;;;6.80;;
30173;SDS011;16985;50.814;8.530;2022-10-18T17:05:09;15.05;;;7.18;;
30173;SDS011;16985;50.814;8.530;2022-10-18T17:07:34;11.82;;;7.10;;
30173;SDS011;16985;50.814;8.530;2022-10-18T17:10:00;12.20;;;8.43;;
30173;SDS011;16985;50.814;8.530;2022-10-18T17:12:26;14.80;;;9.77;;
30173;SDS011;16985;50.814;8.530;2022-10-18T17:14:52;17.23;;;11.40;;
30173;SDS011;16985;50.814;8.530;2022-10-18T17:17:18;15.82;;;10.93;;
30173;SDS011;16985;50.814;8.530;2022-10-18T17:19:43;16.17;;;9.98;;
30173;SDS011;16985;50.814;8.530;2022-10-18T17:22:09;19.42;;;11.43;;
30173;SDS011;16985;50.814;8.530;2022-10-18T17:24:35;15.48;;;10.07;;
30173;SDS011;16985;50.814;8.530;2022-10-18T17:27:01;13.75;;;9.35;;
30173;SDS011;16985;50.814;8.530;2022-10-18T17:29:26;12.82;;;9.70;;
30173;SDS011;16985;50.814;8.530;2022-10-18T17:31:52;21.08;;;10.60;;
30173;SDS011;16985;50.814;8.530;2022-10-18T17:34:18;15.75;;;10.55;;
30173;SDS011;16985;50.814;8.530;2022-10-18T17:36:44;17.95;;;9.70;;
30173;SDS011;16985;50.814;8.530;2022-10-18T17:39:10;14.75;;;9.98;;
30173;SDS011;16985;50.814;8.530;2022-10-18T17:41:35;16.52;;;11.63;;
30173;SDS011;16985;50.814;8.530;2022-10-18T17:44:02;13.45;;;10.10;;
30173;SDS011;16985;50.814;8.530;2022-10-18T17:46:29;15.67;;;11.40;;
30173;SDS011;16985;50.814;8.530;2022-10-18T17:48:54;16.52;;;11.15;;
30173;SDS011;16985;50.814;8.530;2022-10-18T17:51:20;16.63;;;11.52;;
30173;SDS011;16985;50.814;8.530;2022-10-18T17:53:47;22.40;;;12.45;;
30173;SDS011;16985;50.814;8.530;2022-10-18T17:56:14;16.92;;;12.50;;
30173;SDS011;16985;50.814;8.530;2022-10-18T17:58:40;21.20;;;13.32;;
30173;SDS011;16985;50.814;8.530;2022-10-18T18:01:12;23.95;;;13.30;;
30173;SDS011;16985;50.814;8.530;2022-10-18T18:03:40;22.55;;;13.02;;
30173;SDS011;16985;50.814;8.530;2022-10-18T18:06:14;20.17;;;12.18;;
30173;SDS011;16985;50.814;8.530;2022-10-18T18:08:43;20.30;;;14.02;;
30173;SDS011;16985;50.814;8.530;2022-10-18T18:11:09;19.08;;;12.80;;
30173;SDS011;16985;50.814;8.530;2022-10-18T18:13:36;21.65;;;13.55;;
30173;SDS011;16985;50.814;8.530;2022-10-18T18:16:08;23.23;;;13.20;;
30173;SDS011;16985;50.814;8.530;2022-10-18T18:18:47;21.70;;;14.15;;
30173;SDS011;16985;50.814;8.530;2022-10-18T18:21:15;25.67;;;13.35;;